LFSO

Details ICAO LFSO
Name Ochey_AB
Region France
Timezone Europe/Paris (UTC+1.0)
Plans Departing 20
Arriving 5
Stats Elevation 1,105 ft / 337 m (AMSL)
Location 48.583207° 5.954551°
Runways 1
Magnetic Variation 1.648° E
Sunrise 2017-12-18 07:25:21 UTC / 2017-12-18 08:25:21 Local
Sunset 2017-12-18 15:42:56 UTC / 2017-12-18 16:42:56 Local
Advertisement - Login to hide

Runways

ID Width Length Bearing (true) Bearing (mag) Surface Threshold Offset Overrun Length
02 148 ft / 45 m 8,127 ft / 2,477 m 19.53° 17.88° Concrete 0 ft / 0 m 827 ft / 252 m
20 148 ft / 45 m 8,127 ft / 2,477 m 199.54° 197.89° Concrete 0 ft / 0 m 827 ft / 252 m

Approach Navaids

Runway Type Ident Frequency Range Bearing (true) Bearing (mag) Slope Elevation
20 Localiser NAY 108.70 MHz 18 nm / 33 km 199.51° 197.86° - 1,105 ft / 337 m (AMSL)
20 Glidescope NAY 108.70 MHz 10 nm / 19 km 199.54° 197.89° 2.50° 1,105 ft / 337 m (AMSL)

Map

Weather


0- 5 10 15 20 25 30 35+ Temperature / ° C

Clouds and Precipitation
Forecast for 2017-12-18 06:00 UTC. Updated 17 minutes ago

Ground ~20,000 ft ~40,000 ft Winds

METAR

LFSO 180530Z AUTO 22012KT 9999 -RA BKN006 OVC016 01/00 Q1018

TAF

Not found

Frequencies

Tower 122.10 MHz OCHEY TWR
Approach 122.10 MHz OCHEY APP
Tower 127.25 MHz OCHEY TWR
Approach 127.25 MHz OCHEY APP
Warning: Do not use this data for real-world aviation or navigation. No guarantee of current accuracy is given.